createdAt,value
2018-05-18T13:13:10.516Z,20.60
2018-05-18T13:15:38.003Z,20.90
2018-05-18T13:18:05.569Z,20.70
2018-05-18T13:20:33.179Z,20.60
2018-05-18T13:23:00.680Z,21.00
2018-05-18T13:25:28.143Z,21.50
2018-05-18T13:27:55.650Z,21.10
2018-05-18T13:30:23.206Z,20.90
2018-05-18T13:32:50.705Z,21.50
2018-05-18T13:35:18.887Z,21.30
2018-05-18T13:37:46.380Z,21.30
2018-05-18T13:40:14.632Z,20.80
2018-05-18T13:42:42.108Z,20.80
2018-05-18T13:45:10.459Z,20.30
2018-05-18T13:47:37.840Z,20.30
2018-05-18T13:50:06.094Z,21.60
2018-05-18T13:52:33.581Z,21.60
2018-05-18T13:55:01.846Z,22.00
2018-05-18T13:57:29.316Z,22.00
2018-05-18T13:59:57.583Z,22.30
2018-05-18T14:02:25.064Z,22.20
2018-05-18T14:04:52.571Z,22.10
2018-05-18T14:07:20.037Z,22.00
2018-05-18T14:09:47.564Z,22.10
2018-05-18T14:12:15.048Z,22.10
2018-05-18T14:14:42.540Z,21.90
2018-05-18T14:17:10.801Z,21.40
2018-05-18T14:19:38.296Z,21.30
2018-05-18T14:22:05.787Z,20.90
2018-05-18T14:24:33.336Z,20.40
2018-05-18T14:27:00.855Z,20.00
2018-05-18T14:29:29.097Z,19.60
2018-05-18T14:31:56.684Z,19.60
2018-05-18T14:34:24.137Z,19.70
2018-05-18T14:36:51.618Z,19.90
2018-05-18T14:39:19.894Z,19.80
2018-05-18T14:41:48.147Z,19.60
2018-05-18T14:44:15.621Z,19.50
2018-05-18T14:46:43.905Z,19.60
2018-05-18T14:49:11.396Z,19.60
2018-05-18T14:51:38.920Z,19.70
2018-05-18T14:54:07.160Z,19.40
2018-05-18T14:56:34.651Z,19.30
2018-05-18T14:59:03.470Z,19.40
2018-05-18T15:01:31.898Z,19.30
2018-05-18T15:03:59.390Z,19.30
2018-05-18T15:06:26.889Z,19.50
2018-05-18T15:08:54.418Z,19.50
2018-05-18T15:11:22.435Z,19.10
2018-05-18T15:13:50.749Z,18.90
2018-05-18T15:16:18.894Z,18.80
2018-05-18T15:18:46.779Z,18.70
2018-05-18T15:21:15.048Z,18.60
2018-05-18T15:23:43.005Z,18.50
2018-05-18T15:26:10.658Z,18.60
2018-05-18T15:28:38.245Z,18.80
2018-05-18T15:31:05.720Z,18.80
2018-05-18T15:33:33.279Z,18.90
2018-05-18T15:36:01.599Z,18.80
2018-05-18T15:38:29.076Z,18.70
2018-05-18T15:40:56.582Z,18.70
2018-05-18T15:43:24.843Z,18.60
2018-05-18T15:45:53.050Z,18.50
2018-05-18T15:48:20.573Z,18.60
2018-05-18T15:50:48.869Z,18.60
2018-05-18T15:53:16.380Z,18.60
2018-05-18T15:55:43.863Z,18.60
2018-05-18T15:58:11.376Z,18.50
2018-05-18T16:00:38.887Z,18.70
2018-05-18T16:03:07.182Z,18.80
2018-05-18T16:05:35.441Z,18.90
2018-05-18T16:08:03.679Z,19.00
2018-05-18T16:10:31.173Z,18.90
2018-05-18T16:12:59.776Z,19.10
2018-05-18T16:15:27.940Z,19.10
2018-05-18T16:17:56.211Z,19.00
2018-05-18T16:20:24.501Z,19.00
2018-05-18T16:22:52.759Z,19.20
2018-05-18T16:25:21.020Z,19.10
2018-05-18T16:27:48.582Z,19.10
2018-05-18T16:30:16.056Z,19.10
2018-05-18T16:32:44.324Z,19.00
2018-05-18T16:35:12.663Z,18.70
2018-05-18T16:37:41.857Z,18.70
2018-05-18T16:40:09.498Z,18.70
2018-05-18T16:42:36.977Z,18.60
2018-05-18T16:45:04.479Z,18.60
2018-05-18T16:47:31.962Z,18.80
2018-05-18T16:50:00.202Z,18.50
2018-05-18T16:52:27.721Z,18.50
2018-05-18T16:54:55.200Z,18.50
2018-05-18T16:57:22.688Z,18.40
2018-05-18T16:59:50.173Z,18.40
2018-05-18T17:02:18.425Z,18.40
2018-05-18T17:04:45.891Z,18.40
2018-05-18T17:07:13.413Z,18.40
2018-05-18T17:09:40.904Z,18.30
2018-05-18T17:12:08.376Z,18.20
2018-05-18T17:14:36.634Z,18.00
2018-05-18T17:17:04.145Z,18.00
2018-05-18T17:19:31.631Z,18.00
2018-05-18T17:21:59.116Z,18.00
2018-05-18T17:24:26.607Z,17.90
2018-05-18T17:26:54.104Z,17.80
2018-05-18T17:29:21.603Z,17.80
2018-05-18T17:31:49.835Z,17.60
2018-05-18T17:34:17.324Z,17.60
2018-05-18T17:36:46.407Z,17.50
2018-05-18T17:39:13.905Z,17.50
2018-05-18T17:41:42.158Z,17.50
2018-05-18T17:44:09.709Z,17.50
2018-05-18T17:46:37.197Z,17.60
2018-05-18T17:49:05.468Z,17.50
2018-05-18T17:51:33.716Z,17.50
2018-05-18T17:54:02.728Z,17.40
2018-05-18T17:56:30.192Z,17.40
2018-05-18T17:58:58.456Z,17.20
2018-05-18T18:01:25.980Z,17.20
2018-05-18T18:03:53.467Z,17.20
2018-05-18T18:06:20.964Z,17.20
2018-05-18T18:08:48.452Z,17.20
2018-05-18T18:11:15.936Z,17.30
2018-05-18T18:13:43.416Z,17.30
2018-05-18T18:16:11.684Z,17.20
2018-05-18T18:18:39.152Z,17.20
2018-05-18T18:21:07.457Z,17.20
2018-05-18T18:23:34.962Z,17.10
2018-05-18T18:26:02.471Z,17.00
2018-05-18T18:28:30.025Z,17.00
2018-05-18T18:30:57.456Z,17.00
2018-05-18T18:33:24.948Z,16.90
2018-05-18T18:35:52.445Z,16.90
2018-05-18T18:38:19.916Z,16.90
2018-05-18T18:40:47.406Z,16.80
2018-05-18T18:43:15.646Z,16.70
2018-05-18T18:45:43.115Z,16.70
2018-05-18T18:48:10.594Z,16.70
2018-05-18T18:50:38.849Z,16.60
2018-05-18T18:53:06.336Z,16.60
2018-05-18T18:55:34.611Z,16.50
2018-05-18T18:58:02.862Z,16.50
2018-05-18T19:00:31.101Z,16.40
2018-05-18T19:02:58.596Z,16.40
2018-05-18T19:05:26.062Z,16.40
2018-05-18T19:07:54.386Z,16.20
2018-05-18T19:10:21.804Z,16.20
2018-05-18T19:12:50.050Z,16.20
2018-05-18T19:15:17.558Z,16.20
2018-05-18T19:17:45.135Z,16.20
2018-05-18T19:20:12.615Z,16.10
2018-05-18T19:22:40.104Z,16.10
2018-05-18T19:25:08.360Z,16.00
2018-05-18T19:27:35.842Z,15.90
2018-05-18T19:30:04.845Z,15.90
2018-05-18T19:32:33.079Z,15.90
2018-05-18T19:35:00.568Z,15.80
2018-05-18T19:37:28.043Z,15.80
2018-05-18T19:39:55.535Z,15.80
2018-05-18T19:42:23.013Z,15.70
2018-05-18T19:44:50.500Z,15.70
2018-05-18T19:47:18.825Z,15.70
2018-05-18T19:49:46.373Z,15.60
2018-05-18T19:52:13.945Z,15.60
2018-05-18T19:54:41.432Z,15.70
2018-05-18T19:57:08.904Z,15.60
2018-05-18T19:59:36.392Z,15.60
2018-05-18T20:02:04.632Z,15.50
2018-05-18T20:04:32.128Z,15.50
2018-05-18T20:07:00.360Z,15.50
2018-05-18T20:09:27.852Z,15.50
2018-05-18T20:11:56.099Z,15.50
2018-05-18T20:14:23.573Z,15.50
2018-05-18T20:16:51.056Z,15.40
2018-05-18T20:19:19.296Z,15.40
2018-05-18T20:21:46.800Z,15.40
2018-05-18T20:24:14.277Z,15.30
2018-05-18T20:26:41.761Z,15.30
2018-05-18T20:29:09.239Z,15.20
2018-05-18T20:31:36.721Z,15.20
2018-05-18T20:34:04.948Z,15.10
2018-05-18T20:36:32.440Z,15.10
2018-05-18T20:39:00.687Z,15.00
2018-05-18T20:41:28.167Z,15.00
2018-05-18T20:43:55.631Z,15.00
2018-05-18T20:46:23.132Z,15.00
2018-05-18T20:48:50.638Z,15.00
2018-05-18T20:51:18.124Z,14.90
2018-05-18T20:53:46.429Z,14.80
2018-05-18T20:56:13.978Z,14.80
2018-05-18T20:58:41.481Z,14.80
2018-05-18T21:01:08.976Z,14.70
2018-05-18T21:03:37.269Z,14.70
2018-05-18T21:06:04.717Z,14.70
2018-05-18T21:08:33.017Z,14.60
2018-05-18T21:11:00.507Z,14.60
2018-05-18T21:13:27.991Z,14.60
2018-05-18T21:15:56.258Z,14.50
2018-05-18T21:18:23.813Z,14.50
2018-05-18T21:20:51.254Z,14.50
2018-05-18T21:23:18.754Z,14.40
2018-05-18T21:25:46.988Z,14.40
2018-05-18T21:28:14.524Z,14.40
2018-05-18T21:30:42.000Z,14.30
2018-05-18T21:33:09.493Z,14.30
2018-05-18T21:35:36.960Z,14.30
2018-05-18T21:38:05.227Z,14.10
2018-05-18T21:40:33.474Z,14.10
2018-05-18T21:43:00.943Z,14.10
2018-05-18T21:45:28.432Z,14.10
2018-05-18T21:47:56.678Z,14.00
2018-05-18T21:50:24.944Z,14.00
2018-05-18T21:52:52.408Z,13.90
2018-05-18T21:55:19.940Z,13.90
2018-05-18T21:57:47.409Z,13.90
2018-05-18T22:00:14.893Z,13.90
2018-05-18T22:02:42.372Z,13.80
2018-05-18T22:05:10.627Z,13.80
2018-05-18T22:07:38.144Z,13.80
2018-05-18T22:10:05.620Z,13.70
2018-05-18T22:12:33.087Z,13.70
2018-05-18T22:15:00.571Z,13.60
2018-05-18T22:24:27.875Z,13.30
2018-05-18T22:26:55.376Z,13.30
2018-05-18T22:29:22.840Z,13.40
2018-05-18T22:31:50.339Z,13.30
2018-05-18T22:34:17.812Z,13.20
2018-05-18T22:36:45.290Z,13.10
2018-05-18T22:39:13.527Z,13.10
2018-05-18T22:41:41.008Z,13.00
2018-05-18T22:44:08.471Z,13.00
2018-05-18T22:46:36.732Z,13.00
2018-05-18T22:49:04.197Z,13.00
2018-05-18T22:51:31.672Z,12.90
2018-05-18T22:53:59.918Z,12.80
2018-05-18T22:56:27.402Z,12.90
2018-05-18T22:58:55.631Z,12.80
2018-05-18T23:01:23.120Z,12.80
2018-05-18T23:03:50.580Z,12.80
2018-05-18T23:06:18.043Z,12.70
2018-05-18T23:08:46.292Z,12.70
2018-05-18T23:11:13.772Z,12.60
2018-05-18T23:13:41.255Z,12.60
2018-05-18T23:16:09.487Z,12.50
2018-05-18T23:18:36.968Z,12.50
2018-05-18T23:21:04.464Z,12.50
2018-05-18T23:23:31.960Z,12.50
2018-05-18T23:25:59.436Z,12.40
2018-05-18T23:28:26.920Z,12.40
2018-05-18T23:30:55.156Z,12.40
2018-05-18T23:33:22.636Z,12.30
2018-05-18T23:35:50.873Z,12.30
2018-05-18T23:38:18.362Z,12.30
2018-05-18T23:40:45.928Z,12.30
2018-05-18T23:43:13.415Z,12.20
2018-05-18T23:45:40.885Z,12.10
2018-05-18T23:48:08.347Z,12.10
2018-05-18T23:50:35.887Z,12.10
2018-05-18T23:53:03.354Z,12.10
2018-05-18T23:55:30.833Z,12.10
2018-05-18T23:57:58.295Z,12.00
